createdAt,value
2023-11-24T00:00:44.844Z,27.12
2023-11-24T00:03:13.147Z,26.78
2023-11-24T00:05:41.405Z,26.60
2023-11-24T00:08:09.590Z,26.85
2023-11-24T00:10:38.439Z,26.89
2023-11-24T00:13:07.705Z,26.61
2023-11-24T00:15:38.405Z,26.07
2023-11-24T00:18:06.675Z,25.94
2023-11-24T00:20:35.332Z,26.26
2023-11-24T00:23:03.737Z,26.26
2023-11-24T00:25:34.033Z,26.26
2023-11-24T00:28:02.966Z,26.20
2023-11-24T00:30:31.027Z,26.43
2023-11-24T00:32:59.151Z,26.41
2023-11-24T00:35:27.373Z,26.69
2023-11-24T00:37:55.381Z,26.54
2023-11-24T00:40:23.303Z,27.18
2023-11-24T00:42:51.685Z,27.28
2023-11-24T00:45:19.858Z,27.01
2023-11-24T00:47:48.274Z,27.21
2023-11-24T00:50:16.559Z,26.89
2023-11-24T00:52:44.776Z,26.65
2023-11-24T00:55:13.194Z,27.01
2023-11-24T00:57:42.091Z,26.68
2023-11-24T01:00:11.832Z,27.00
2023-11-24T01:02:40.319Z,27.08
2023-11-24T01:05:10.744Z,27.47
2023-11-24T01:07:38.783Z,27.49
2023-11-24T01:10:09.156Z,27.45
2023-11-24T01:12:37.602Z,27.18
2023-11-24T01:15:07.552Z,27.16
2023-11-24T01:17:36.900Z,27.22
2023-11-24T01:20:05.343Z,27.31
2023-11-24T01:22:33.410Z,27.72
2023-11-24T01:25:01.521Z,27.74
2023-11-24T01:27:29.644Z,27.50
2023-11-24T01:29:57.841Z,27.61
2023-11-24T01:32:25.765Z,27.81
2023-11-24T01:34:54.381Z,27.88
2023-11-24T01:37:23.634Z,27.92
2023-11-24T01:39:51.966Z,28.66
2023-11-24T01:42:20.596Z,28.56
2023-11-24T01:44:49.174Z,28.56
2023-11-24T01:47:17.850Z,28.40
2023-11-24T01:49:47.320Z,28.54
2023-11-24T01:52:16.157Z,28.11
2023-11-24T01:54:44.209Z,28.61
2023-11-24T01:57:13.383Z,28.59
2023-11-24T01:59:42.521Z,28.68
2023-11-24T02:02:11.221Z,28.41
2023-11-24T02:04:39.497Z,28.66
2023-11-24T02:07:09.203Z,28.71
2023-11-24T02:09:37.385Z,28.58
2023-11-24T02:12:05.583Z,28.70
2023-11-24T02:14:34.257Z,28.39
2023-11-24T02:17:02.430Z,28.36
2023-11-24T02:19:30.720Z,28.28
2023-11-24T02:21:58.967Z,28.36
2023-11-24T02:24:26.856Z,28.08
2023-11-24T02:26:55.159Z,28.04
2023-11-24T02:29:23.033Z,28.09
2023-11-24T02:31:50.935Z,28.40
2023-11-24T02:34:19.904Z,28.11
2023-11-24T02:36:48.316Z,27.88
2023-11-24T02:39:16.381Z,28.72
2023-11-24T02:41:44.321Z,28.23
2023-11-24T02:44:12.451Z,28.30
2023-11-24T02:46:42.237Z,29.24
2023-11-24T02:49:10.471Z,28.87
2023-11-24T02:51:39.304Z,28.45
2023-11-24T02:54:08.140Z,28.69
2023-11-24T02:56:36.750Z,29.05
2023-11-24T02:59:04.585Z,28.65
2023-11-24T03:01:33.135Z,28.69
2023-11-24T03:04:01.347Z,28.95
2023-11-24T03:06:29.595Z,28.78
2023-11-24T03:08:58.963Z,28.36
2023-11-24T03:11:26.806Z,28.43
2023-11-24T03:13:55.196Z,28.71
2023-11-24T03:16:23.430Z,28.40
2023-11-24T03:18:51.486Z,28.58
2023-11-24T03:21:19.440Z,28.56
2023-11-24T03:23:47.853Z,28.70
2023-11-24T03:26:16.022Z,29.03
2023-11-24T03:28:44.164Z,29.01
2023-11-24T03:31:12.642Z,28.87
2023-11-24T03:33:40.694Z,29.32
2023-11-24T03:36:08.983Z,29.38
2023-11-24T03:38:37.128Z,29.06
2023-11-24T03:41:05.104Z,28.94
2023-11-24T03:43:33.466Z,29.02
2023-11-24T03:46:01.878Z,29.08
2023-11-24T03:48:31.612Z,28.92
2023-11-24T03:51:00.238Z,29.16
2023-11-24T03:53:28.319Z,29.14
2023-11-24T03:55:56.236Z,28.96
2023-11-24T03:58:24.359Z,28.85
2023-11-24T04:00:52.221Z,28.64
2023-11-24T04:03:20.513Z,28.73
2023-11-24T04:05:48.452Z,28.96
2023-11-24T04:08:16.505Z,28.56
2023-11-24T04:10:44.814Z,28.48
2023-11-24T04:13:13.323Z,28.41
2023-11-24T04:15:41.219Z,28.40
2023-11-24T04:18:09.265Z,28.47
2023-11-24T04:20:37.454Z,28.53
2023-11-24T04:23:08.371Z,28.45
2023-11-24T04:25:37.003Z,28.38
2023-11-24T04:28:05.934Z,28.47
2023-11-24T04:30:34.492Z,28.31
2023-11-24T04:35:31.918Z,28.46
2023-11-24T04:38:00.089Z,28.52
2023-11-24T04:40:28.032Z,28.30
2023-11-24T04:42:56.438Z,28.38
2023-11-24T04:45:24.493Z,28.29
2023-11-24T04:47:52.908Z,28.25
2023-11-24T04:50:21.139Z,28.01
2023-11-24T04:52:49.266Z,28.00
2023-11-24T04:55:17.294Z,28.00
2023-11-24T04:57:51.706Z,28.29
2023-11-24T05:00:20.257Z,28.61
2023-11-24T05:02:48.328Z,28.65
2023-11-24T05:05:18.731Z,28.71
2023-11-24T05:07:47.102Z,28.55
2023-11-24T05:10:15.033Z,28.92
2023-11-24T05:12:43.056Z,28.58
2023-11-24T05:15:11.734Z,28.56
2023-11-24T05:17:40.532Z,28.49
2023-11-24T05:20:09.797Z,28.62
2023-11-24T05:22:37.987Z,28.25
2023-11-24T05:25:07.171Z,28.96
2023-11-24T05:27:35.520Z,28.83
2023-11-24T05:30:08.800Z,28.81
2023-11-24T05:32:37.339Z,28.77
2023-11-24T05:35:05.824Z,28.91
2023-11-24T05:37:34.326Z,29.11
2023-11-24T05:40:06.062Z,29.61
2023-11-24T05:42:34.145Z,29.66
2023-11-24T05:45:03.546Z,30.21
2023-11-24T05:47:31.861Z,30.20
2023-11-24T05:50:00.000Z,30.10
2023-11-24T05:52:28.633Z,30.31
2023-11-24T05:54:59.616Z,30.88
2023-11-24T05:57:28.467Z,30.33
2023-11-24T05:59:57.387Z,30.36
2023-11-24T06:02:26.221Z,30.48
2023-11-24T06:04:54.503Z,30.76
2023-11-24T06:07:24.270Z,31.37
2023-11-24T06:09:52.324Z,30.99
2023-11-24T06:12:20.834Z,30.83
2023-11-24T06:14:49.841Z,30.89
2023-11-24T06:17:17.817Z,30.06
2023-11-24T06:19:45.845Z,29.97
2023-11-24T06:22:13.888Z,29.56
2023-11-24T06:24:43.343Z,29.81
2023-11-24T06:27:11.717Z,29.93
2023-11-24T06:29:39.799Z,29.50
2023-11-24T06:32:09.030Z,29.38
2023-11-24T06:34:36.911Z,29.40
2023-11-24T06:37:05.148Z,29.70
2023-11-24T06:39:33.152Z,29.61
2023-11-24T06:42:02.013Z,29.45
2023-11-24T06:44:30.044Z,29.45
2023-11-24T06:46:59.048Z,29.42
2023-11-24T06:49:30.952Z,29.50
2023-11-24T06:52:00.101Z,29.76
2023-11-24T06:54:27.896Z,30.09
2023-11-24T06:56:56.295Z,30.32
2023-11-24T06:59:24.138Z,30.60
2023-11-24T07:01:52.292Z,29.96
2023-11-24T07:04:20.581Z,29.44
2023-11-24T07:06:48.674Z,29.25
2023-11-24T07:09:16.978Z,29.11
2023-11-24T07:11:45.132Z,29.56
2023-11-24T07:14:12.986Z,29.43
2023-11-24T07:16:40.969Z,29.42
2023-11-24T07:19:09.316Z,29.65
2023-11-24T07:21:37.868Z,29.88
2023-11-24T07:24:06.415Z,30.13
2023-11-24T07:26:34.393Z,29.89
2023-11-24T07:29:03.819Z,30.12
2023-11-24T07:31:32.019Z,29.82
2023-11-24T07:33:59.994Z,29.63
2023-11-24T07:36:27.967Z,29.98
2023-11-24T07:38:56.014Z,30.04
2023-11-24T07:41:23.829Z,33.00
2023-11-24T07:43:51.771Z,33.13
2023-11-24T07:46:19.655Z,33.21
2023-11-24T07:48:48.306Z,32.75
2023-11-24T07:51:16.342Z,31.86
2023-11-24T07:53:44.288Z,31.68
2023-11-24T07:56:12.203Z,31.90
2023-11-24T07:58:40.552Z,31.55
2023-11-24T08:01:09.179Z,31.79
2023-11-24T08:03:37.753Z,31.27
2023-11-24T08:06:09.734Z,30.65
2023-11-24T08:08:37.674Z,30.67
2023-11-24T08:11:06.299Z,30.75
2023-11-24T08:13:34.439Z,31.07
2023-11-24T08:16:03.524Z,30.97
2023-11-24T08:18:31.836Z,30.56
2023-11-24T08:21:03.245Z,30.74
2023-11-24T08:23:31.892Z,30.53
2023-11-24T08:25:59.772Z,30.35
2023-11-24T08:28:27.777Z,29.68
2023-11-24T08:30:56.845Z,29.73
2023-11-24T08:33:25.036Z,29.68
2023-11-24T08:35:52.955Z,30.24
2023-11-24T08:38:21.058Z,30.78
2023-11-24T08:40:50.270Z,30.39
2023-11-24T08:43:19.542Z,30.56
2023-11-24T08:45:47.584Z,30.85
2023-11-24T08:48:15.753Z,30.94
2023-11-24T08:50:43.616Z,31.93
2023-11-24T08:53:11.767Z,31.94
2023-11-24T08:55:39.664Z,31.50
2023-11-24T08:58:07.698Z,32.07
2023-11-24T09:00:36.590Z,30.98
2023-11-24T09:03:06.653Z,30.77
2023-11-24T09:05:34.700Z,31.49
2023-11-24T09:08:02.796Z,32.64
2023-11-24T09:10:30.722Z,32.02
2023-11-24T09:12:59.369Z,30.98
2023-11-24T09:15:27.403Z,31.19
2023-11-24T09:17:55.966Z,31.80
2023-11-24T09:20:23.970Z,31.82
2023-11-24T09:22:52.209Z,31.95
2023-11-24T09:25:21.123Z,32.08
2023-11-24T09:27:49.621Z,32.35
2023-11-24T09:30:17.905Z,31.70
2023-11-24T09:32:47.224Z,32.00
2023-11-24T09:35:15.844Z,31.59
2023-11-24T09:37:44.350Z,31.00
2023-11-24T09:40:18.129Z,30.90
2023-11-24T09:42:47.538Z,30.89
2023-11-24T09:45:18.407Z,31.22
2023-11-24T09:47:51.724Z,31.35
2023-11-24T09:50:25.824Z,30.58
2023-11-24T09:53:02.110Z,30.80
2023-11-24T09:55:30.753Z,30.67
2023-11-24T09:57:59.784Z,30.36
2023-11-24T10:00:29.151Z,30.42
2023-11-24T10:03:00.398Z,30.85
2023-11-24T10:05:28.502Z,30.86
2023-11-24T10:07:58.265Z,30.92
2023-11-24T10:10:27.943Z,30.98
2023-11-24T10:13:03.569Z,30.64
2023-11-24T10:15:32.844Z,30.64
2023-11-24T10:18:01.202Z,30.46
2023-11-24T10:20:34.014Z,30.81
2023-11-24T10:23:02.421Z,31.05
2023-11-24T10:25:35.538Z,31.16
2023-11-24T10:28:09.297Z,31.64
2023-11-24T10:30:38.113Z,31.19
2023-11-24T10:33:06.679Z,30.76
2023-11-24T10:35:34.676Z,30.08
2023-11-24T10:38:03.888Z,29.99
2023-11-24T10:40:33.297Z,30.28
2023-11-24T10:43:03.561Z,30.11
2023-11-24T10:45:33.691Z,30.17
2023-11-24T10:48:28.208Z,30.29
2023-11-24T10:51:29.181Z,29.71
2023-11-24T10:54:01.439Z,29.95
2023-11-24T10:56:31.412Z,29.67
2023-11-24T10:59:01.022Z,29.65
2023-11-24T11:01:29.561Z,29.50
2023-11-24T11:03:59.163Z,29.31
2023-11-24T11:06:40.508Z,29.64
2023-11-24T11:09:20.229Z,29.83
2023-11-24T11:12:14.933Z,29.83
2023-11-24T11:14:43.791Z,29.98
2023-11-24T11:17:21.915Z,30.30
2023-11-24T11:20:01.378Z,32.92
2023-11-24T11:22:38.043Z,31.21
2023-11-24T11:25:24.691Z,30.16
2023-11-24T11:27:56.183Z,29.82
2023-11-24T11:30:27.944Z,29.93
2023-11-24T11:33:16.560Z,29.92
2023-11-24T11:35:48.106Z,29.92
2023-11-24T11:38:34.965Z,29.92
2023-11-24T11:41:05.620Z,30.11
2023-11-24T11:43:52.630Z,30.11
2023-11-24T11:49:10.929Z,30.11
2023-11-24T11:51:39.477Z,29.93
2023-11-24T11:54:08.344Z,29.75
2023-11-24T11:56:36.404Z,29.99
2023-11-24T11:59:07.046Z,29.99
2023-11-24T12:01:37.181Z,29.51
2023-11-24T12:04:05.605Z,29.77
2023-11-24T12:06:34.044Z,30.24
2023-11-24T12:09:02.049Z,30.22
2023-11-24T12:11:30.500Z,30.09
2023-11-24T12:13:58.733Z,29.88
2023-11-24T12:16:29.765Z,29.88
2023-11-24T12:18:58.328Z,30.24
2023-11-24T12:21:26.305Z,30.24
2023-11-24T12:24:05.045Z,29.75
2023-11-24T12:26:40.923Z,29.29
2023-11-24T12:29:14.961Z,29.47
2023-11-24T12:31:43.826Z,29.83
2023-11-24T12:34:25.891Z,29.55
2023-11-24T12:36:57.254Z,30.13
2023-11-24T12:39:35.677Z,31.00
2023-11-24T12:42:06.015Z,30.24
2023-11-24T12:44:35.688Z,29.75
2023-11-24T12:47:10.308Z,29.92
2023-11-24T12:50:01.610Z,29.29
2023-11-24T12:52:32.762Z,30.59
2023-11-24T12:55:03.180Z,32.49
2023-11-24T12:57:32.316Z,31.47
2023-11-24T13:00:11.165Z,30.23
2023-11-24T13:02:40.878Z,29.08
2023-11-24T13:05:11.148Z,29.51
2023-11-24T13:07:44.189Z,29.99
2023-11-24T13:10:13.004Z,29.69
2023-11-24T13:12:43.197Z,29.41
2023-11-24T13:15:11.846Z,29.60
2023-11-24T13:17:40.328Z,29.37
2023-11-24T13:20:15.042Z,29.27
2023-11-24T13:22:44.984Z,29.71
2023-11-24T13:25:13.430Z,29.78
2023-11-24T13:27:43.028Z,30.26
2023-11-24T13:30:13.322Z,29.80
2023-11-24T13:32:42.735Z,30.07
2023-11-24T13:35:17.133Z,29.75
2023-11-24T13:37:48.517Z,30.15
2023-11-24T13:40:21.499Z,30.40
2023-11-24T13:42:50.648Z,30.63
2023-11-24T13:45:18.766Z,30.64
2023-11-24T13:47:46.768Z,30.84
2023-11-24T13:50:16.008Z,30.65
2023-11-24T13:52:45.260Z,30.85
2023-11-24T13:55:13.616Z,30.69
2023-11-24T13:57:41.793Z,31.21
2023-11-24T14:00:12.802Z,31.49
2023-11-24T14:02:42.182Z,31.40
2023-11-24T14:05:10.837Z,31.44
2023-11-24T14:07:39.350Z,31.77
2023-11-24T14:10:07.858Z,32.29
2023-11-24T14:12:36.566Z,32.45
2023-11-24T14:15:05.884Z,33.11
2023-11-24T14:17:37.061Z,33.25
2023-11-24T14:20:08.249Z,32.36
2023-11-24T14:22:37.610Z,32.38
2023-11-24T14:25:07.963Z,32.84
2023-11-24T14:27:36.897Z,32.37
2023-11-24T14:30:06.895Z,32.68
2023-11-24T14:32:35.693Z,32.51
2023-11-24T14:35:07.049Z,32.56
2023-11-24T14:37:35.377Z,32.78
2023-11-24T14:42:36.728Z,32.44
2023-11-24T14:45:06.034Z,32.48
2023-11-24T14:47:33.982Z,32.33
2023-11-24T14:50:06.713Z,32.35
2023-11-24T14:52:35.015Z,32.55
2023-11-24T14:55:06.173Z,32.77
2023-11-24T14:57:34.698Z,33.21
2023-11-24T15:00:03.634Z,33.49
2023-11-24T15:02:32.117Z,33.12
2023-11-24T15:05:00.250Z,33.09
2023-11-24T15:07:31.057Z,33.26
2023-11-24T15:10:00.523Z,32.96
2023-11-24T15:12:28.717Z,32.84
2023-11-24T15:15:00.345Z,32.66
2023-11-24T15:17:28.756Z,32.94
2023-11-24T15:19:57.038Z,32.90
2023-11-24T15:22:28.551Z,32.87
2023-11-24T15:24:59.708Z,33.05
2023-11-24T15:27:28.538Z,33.35
2023-11-24T15:29:56.757Z,33.51
2023-11-24T15:32:25.311Z,33.72
2023-11-24T15:34:54.709Z,33.97
2023-11-24T15:37:24.228Z,34.05
2023-11-24T15:39:58.395Z,33.87
2023-11-24T15:42:30.437Z,34.04
2023-11-24T15:45:00.406Z,34.13
2023-11-24T15:47:29.726Z,33.95
2023-11-24T15:49:59.678Z,34.01
2023-11-24T15:52:28.673Z,34.05
2023-11-24T15:54:58.908Z,34.02
2023-11-24T15:57:27.866Z,34.16
2023-11-24T16:00:00.792Z,34.19
2023-11-24T16:02:33.194Z,34.14
2023-11-24T16:05:05.833Z,34.12
2023-11-24T16:07:35.951Z,34.16
2023-11-24T16:10:16.931Z,34.04
2023-11-24T16:12:46.021Z,33.68
2023-11-24T16:15:20.259Z,33.38
2023-11-24T16:17:51.535Z,33.47
2023-11-24T16:20:19.718Z,33.96
2023-11-24T16:22:47.648Z,33.20
2023-11-24T16:25:15.794Z,32.25
2023-11-24T16:27:44.022Z,32.11
2023-11-24T16:30:12.201Z,32.96
2023-11-24T16:32:40.743Z,32.08
2023-11-24T16:35:13.422Z,33.61
2023-11-24T16:37:42.033Z,32.03
2023-11-24T16:40:10.318Z,32.91
2023-11-24T16:42:38.589Z,33.26
2023-11-24T16:45:10.151Z,32.87
2023-11-24T16:47:38.695Z,32.76
2023-11-24T16:50:09.269Z,32.93
2023-11-24T16:52:46.543Z,32.31
2023-11-24T16:55:16.014Z,32.10
2023-11-24T16:57:43.932Z,31.87
2023-11-24T17:00:14.934Z,32.69
2023-11-24T17:02:43.160Z,32.03
2023-11-24T17:05:12.055Z,31.92
2023-11-24T17:07:42.813Z,31.02
2023-11-24T17:10:11.421Z,31.30
2023-11-24T17:12:40.749Z,31.23
2023-11-24T17:15:12.663Z,31.48
2023-11-24T17:17:41.308Z,31.18
2023-11-24T17:20:09.929Z,31.43
2023-11-24T17:22:40.910Z,31.52
2023-11-24T17:25:09.091Z,30.81
2023-11-24T17:27:37.768Z,30.70
2023-11-24T17:30:08.198Z,30.79
2023-11-24T17:32:37.190Z,30.85
2023-11-24T17:35:07.945Z,31.06
2023-11-24T17:37:36.661Z,31.09
2023-11-24T17:40:09.614Z,30.78
2023-11-24T17:42:37.890Z,31.13
2023-11-24T17:45:16.355Z,30.66
2023-11-24T17:47:46.885Z,30.65
2023-11-24T17:50:15.307Z,31.13
2023-11-24T17:52:44.102Z,31.04
2023-11-24T17:55:12.313Z,30.60
2023-11-24T17:57:40.463Z,30.54
2023-11-24T18:00:14.427Z,30.90
2023-11-24T18:02:42.510Z,30.60
2023-11-24T18:05:11.637Z,30.69
2023-11-24T18:07:40.403Z,30.57
2023-11-24T18:10:08.906Z,31.10
2023-11-24T18:12:37.150Z,31.64
2023-11-24T18:15:08.209Z,31.67
2023-11-24T18:17:36.535Z,31.38
2023-11-24T18:20:06.563Z,31.30
2023-11-24T18:22:34.694Z,30.53
2023-11-24T18:25:10.397Z,30.34
2023-11-24T18:27:39.322Z,30.15
2023-11-24T18:30:08.295Z,30.86
2023-11-24T18:32:36.292Z,30.97
2023-11-24T18:35:04.653Z,31.03
2023-11-24T18:37:32.938Z,30.96
2023-11-24T18:40:03.839Z,31.26
2023-11-24T18:42:34.040Z,31.30
2023-11-24T18:45:02.763Z,31.01
2023-11-24T18:47:31.929Z,31.01
2023-11-24T18:50:00.041Z,30.96
2023-11-24T18:52:28.148Z,30.26
2023-11-24T18:54:56.469Z,30.36
2023-11-24T18:57:25.704Z,30.28
2023-11-24T18:59:54.936Z,30.73
2023-11-24T19:02:27.931Z,30.57
2023-11-24T19:04:56.544Z,30.42
2023-11-24T19:07:24.779Z,30.41
2023-11-24T19:09:54.398Z,30.30
2023-11-24T19:12:22.399Z,30.62
2023-11-24T19:14:50.598Z,30.74
2023-11-24T19:17:19.612Z,30.69
2023-11-24T19:19:50.507Z,31.07
2023-11-24T19:22:19.461Z,30.97
2023-11-24T19:24:48.183Z,31.51
2023-11-24T19:27:16.813Z,31.47
2023-11-24T19:29:45.196Z,31.32
2023-11-24T19:32:13.238Z,31.33
2023-11-24T19:34:43.827Z,31.70
2023-11-24T19:37:14.439Z,32.22
2023-11-24T19:39:43.908Z,32.27
2023-11-24T19:42:12.447Z,31.99
2023-11-24T19:44:41.136Z,32.01
2023-11-24T19:47:13.037Z,31.69
2023-11-24T19:49:40.885Z,31.58
2023-11-24T19:52:10.937Z,31.36
2023-11-24T19:54:39.418Z,31.49
2023-11-24T19:57:07.596Z,31.54
2023-11-24T19:59:35.683Z,31.78
2023-11-24T20:02:06.071Z,31.84
2023-11-24T20:04:35.284Z,31.49
2023-11-24T20:07:03.812Z,31.61
2023-11-24T20:09:34.341Z,31.54
2023-11-24T20:12:02.538Z,31.25
2023-11-24T20:14:32.753Z,31.18
2023-11-24T20:17:01.049Z,31.32
2023-11-24T20:19:30.064Z,31.42
2023-11-24T20:21:58.398Z,31.72
2023-11-24T20:24:27.517Z,31.86
2023-11-24T20:26:56.207Z,32.03
2023-11-24T20:29:24.142Z,32.04
2023-11-24T20:31:52.042Z,31.77
2023-11-24T20:34:20.125Z,31.89
2023-11-24T20:36:48.785Z,31.77
2023-11-24T20:39:22.640Z,31.78
2023-11-24T20:41:51.915Z,31.67
2023-11-24T20:44:20.292Z,32.00
2023-11-24T20:46:52.004Z,31.85
2023-11-24T20:49:20.171Z,31.59
2023-11-24T20:51:48.369Z,31.41
2023-11-24T20:54:16.958Z,31.44
2023-11-24T20:56:45.724Z,31.65
2023-11-24T20:59:14.907Z,31.84
2023-11-24T21:01:43.245Z,32.36
2023-11-24T21:04:13.645Z,32.62
2023-11-24T21:06:41.958Z,33.01
2023-11-24T21:09:11.820Z,33.30
2023-11-24T21:11:40.395Z,33.37
2023-11-24T21:14:09.126Z,33.35
2023-11-24T21:16:37.390Z,33.20
2023-11-24T21:19:05.723Z,33.31
2023-11-24T21:21:34.051Z,33.17
2023-11-24T21:24:02.752Z,33.42
2023-11-24T21:26:30.636Z,33.12
2023-11-24T21:28:58.677Z,33.09
2023-11-24T21:31:27.058Z,33.19
2023-11-24T21:33:55.875Z,32.84
2023-11-24T21:36:24.311Z,33.10
2023-11-24T21:38:52.608Z,33.08
2023-11-24T21:41:23.654Z,33.13
2023-11-24T21:43:52.133Z,33.04
2023-11-24T21:46:21.392Z,32.58
2023-11-24T21:48:50.970Z,32.44
2023-11-24T21:51:19.377Z,32.22
2023-11-24T21:53:47.631Z,32.13
2023-11-24T21:56:24.967Z,32.26
2023-11-24T21:58:53.961Z,32.46
2023-11-24T22:01:22.601Z,32.32
2023-11-24T22:03:53.589Z,32.88
2023-11-24T22:06:26.051Z,33.37
2023-11-24T22:08:54.327Z,32.77
2023-11-24T22:11:22.318Z,33.13
2023-11-24T22:13:50.417Z,33.15
2023-11-24T22:16:19.588Z,32.72
2023-11-24T22:18:51.109Z,33.16
2023-11-24T22:21:20.210Z,32.92
2023-11-24T22:23:48.644Z,32.92
2023-11-24T22:26:23.222Z,33.22
2023-11-24T22:28:53.677Z,33.25
2023-11-24T22:31:21.829Z,32.83
2023-11-24T22:33:50.814Z,32.95
2023-11-24T22:36:22.988Z,32.89
2023-11-24T22:38:51.414Z,33.13
2023-11-24T22:41:21.121Z,33.16
2023-11-24T22:43:56.920Z,33.41
2023-11-24T22:46:26.322Z,32.96
2023-11-24T22:48:55.245Z,33.22
2023-11-24T22:51:27.863Z,33.24
2023-11-24T22:53:56.182Z,33.17
2023-11-24T22:56:26.953Z,33.50
2023-11-24T22:58:56.938Z,33.63
2023-11-24T23:01:26.794Z,34.02
2023-11-24T23:04:01.113Z,34.30
2023-11-24T23:06:29.812Z,34.75
2023-11-24T23:08:58.204Z,35.20
2023-11-24T23:11:27.357Z,35.16
2023-11-24T23:13:55.811Z,35.48
2023-11-24T23:16:26.999Z,35.75
2023-11-24T23:18:55.298Z,36.34
2023-11-24T23:21:24.248Z,36.74
2023-11-24T23:23:52.663Z,37.07
2023-11-24T23:26:20.898Z,37.10
2023-11-24T23:28:49.615Z,37.49
2023-11-24T23:31:18.563Z,38.28
2023-11-24T23:33:47.716Z,38.77
2023-11-24T23:36:16.858Z,38.89
2023-11-24T23:38:47.094Z,38.90
2023-11-24T23:41:15.398Z,39.31
2023-11-24T23:43:44.346Z,39.23
2023-11-24T23:46:12.669Z,39.57
2023-11-24T23:48:40.797Z,40.40
2023-11-24T23:51:08.929Z,39.76
2023-11-24T23:53:37.014Z,39.48
2023-11-24T23:56:07.086Z,39.64
2023-11-24T23:58:38.479Z,39.58
